createdAt,value
2023-01-17T00:02:21.469Z,56.70
2023-01-17T00:05:07.271Z,56.70
2023-01-17T00:07:53.399Z,56.70
2023-01-17T00:10:22.645Z,57.00
2023-01-17T00:13:01.255Z,57.10
2023-01-17T00:15:30.724Z,57.40
2023-01-17T00:17:58.256Z,56.70
2023-01-17T00:20:49.134Z,56.60
2023-01-17T00:23:35.956Z,56.30
2023-01-17T00:26:03.359Z,56.50
2023-01-17T00:28:38.555Z,56.80
2023-01-17T00:31:07.638Z,56.50
2023-01-17T00:33:35.168Z,57.30
2023-01-17T00:36:03.871Z,56.90
2023-01-17T00:38:33.280Z,56.90
2023-01-17T00:41:08.603Z,57.20
2023-01-17T00:43:54.532Z,57.00
2023-01-17T00:46:40.608Z,56.50
2023-01-17T00:49:26.697Z,57.10
2023-01-17T00:52:12.175Z,56.70
2023-01-17T00:54:57.543Z,56.70
2023-01-17T00:57:42.904Z,57.00
2023-01-17T01:00:29.237Z,56.60
2023-01-17T01:03:14.577Z,57.60
2023-01-17T01:06:00.018Z,57.30
2023-01-17T01:08:47.549Z,56.40
2023-01-17T01:11:36.804Z,56.40
2023-01-17T01:14:22.949Z,56.50
2023-01-17T01:17:09.061Z,56.60
2023-01-17T01:19:54.419Z,57.20
2023-01-17T01:22:40.032Z,57.90
2023-01-17T01:25:25.752Z,58.30
2023-01-17T01:28:11.133Z,57.40
2023-01-17T01:30:56.870Z,58.30
2023-01-17T01:33:23.727Z,58.00
2023-01-17T01:35:55.543Z,56.50
2023-01-17T01:38:27.173Z,56.10
2023-01-17T01:40:56.528Z,56.50
2023-01-17T01:43:56.066Z,56.70
2023-01-17T01:46:38.741Z,56.20
2023-01-17T01:49:13.055Z,55.90
2023-01-17T01:51:43.135Z,56.00
2023-01-17T01:54:19.437Z,57.00
2023-01-17T01:56:47.968Z,56.20
2023-01-17T01:59:16.747Z,57.40
2023-01-17T02:01:43.870Z,56.20
2023-01-17T02:04:12.039Z,56.70
2023-01-17T02:06:49.022Z,57.10
2023-01-17T02:09:17.899Z,56.60
2023-01-17T02:11:46.845Z,56.70
2023-01-17T02:14:18.821Z,56.70
2023-01-17T02:16:54.636Z,56.20
2023-01-17T02:19:24.351Z,56.90
2023-01-17T02:22:28.790Z,56.80
2023-01-17T02:25:33.390Z,56.70
2023-01-17T02:28:35.544Z,56.20
2023-01-17T02:31:14.742Z,57.50
2023-01-17T02:34:06.918Z,56.90
2023-01-17T02:36:38.050Z,57.40
2023-01-17T02:39:31.255Z,57.80
2023-01-17T02:42:05.684Z,57.80
2023-01-17T02:44:40.958Z,57.60
2023-01-17T02:47:21.235Z,56.70
2023-01-17T02:49:48.221Z,57.20
2023-01-17T02:52:29.369Z,57.00
2023-01-17T02:55:25.018Z,57.30
2023-01-17T02:58:13.262Z,57.10
2023-01-17T03:00:59.096Z,56.60
2023-01-17T03:03:42.003Z,57.40
2023-01-17T03:06:29.876Z,57.10
2023-01-17T03:08:56.819Z,56.90
2023-01-17T03:11:23.993Z,57.70
2023-01-17T03:13:56.685Z,58.10
2023-01-17T03:16:25.926Z,57.10
2023-01-17T03:18:53.969Z,57.20
2023-01-17T03:21:22.151Z,57.60
2023-01-17T03:23:50.533Z,57.60
2023-01-17T03:26:17.833Z,58.10
2023-01-17T03:28:44.899Z,57.80
2023-01-17T03:31:16.230Z,57.60
2023-01-17T03:33:43.425Z,57.30
2023-01-17T03:36:12.156Z,57.80
2023-01-17T03:38:39.294Z,57.90
2023-01-17T03:41:07.142Z,57.50
2023-01-17T03:43:34.155Z,58.30
2023-01-17T03:46:06.331Z,57.40
2023-01-17T03:48:34.180Z,57.50
2023-01-17T03:51:01.170Z,58.40
2023-01-17T03:53:28.168Z,57.60
2023-01-17T03:55:55.196Z,57.80
2023-01-17T03:58:22.142Z,57.90
2023-01-17T04:00:49.070Z,57.00
2023-01-17T04:03:16.023Z,57.70
2023-01-17T04:05:43.130Z,57.30
2023-01-17T04:08:10.083Z,57.00
2023-01-17T04:10:38.043Z,56.90
2023-01-17T04:13:06.119Z,58.20
2023-01-17T04:15:33.793Z,57.60
2023-01-17T04:18:01.254Z,57.10
2023-01-17T04:20:36.936Z,56.30
2023-01-17T04:23:04.221Z,57.20
2023-01-17T04:25:31.296Z,57.60
2023-01-17T04:28:00.099Z,58.40
2023-01-17T04:30:28.697Z,58.20
2023-01-17T04:32:56.342Z,57.90
2023-01-17T04:35:24.577Z,56.90
2023-01-17T04:37:51.954Z,57.80
2023-01-17T04:40:19.251Z,57.60
2023-01-17T04:42:46.407Z,57.60
2023-01-17T04:45:15.042Z,57.20
2023-01-17T04:47:42.056Z,57.80
2023-01-17T04:50:10.967Z,58.20
2023-01-17T04:52:37.937Z,58.30
2023-01-17T04:55:06.006Z,58.30
2023-01-17T04:57:33.060Z,57.30
2023-01-17T05:00:02.695Z,57.60
2023-01-17T05:02:29.670Z,57.90
2023-01-17T05:04:56.667Z,57.90
2023-01-17T05:07:23.554Z,57.70
2023-01-17T05:09:50.477Z,57.80
2023-01-17T05:12:17.594Z,57.60
2023-01-17T05:14:44.543Z,57.90
2023-01-17T05:17:11.516Z,58.20
2023-01-17T05:19:38.426Z,58.30
2023-01-17T05:22:15.171Z,58.00
2023-01-17T05:24:46.706Z,58.70
2023-01-17T05:27:14.779Z,57.90
2023-01-17T05:29:41.837Z,58.20
2023-01-17T05:32:08.775Z,58.40
2023-01-17T05:34:35.746Z,59.40
2023-01-17T05:37:05.233Z,59.90
2023-01-17T05:39:32.174Z,59.70
2023-01-17T05:41:59.809Z,59.90
2023-01-17T05:44:27.746Z,60.10
2023-01-17T05:46:55.482Z,60.00
2023-01-17T05:49:22.507Z,61.90
2023-01-17T05:51:49.565Z,62.20
2023-01-17T05:54:16.844Z,61.80
2023-01-17T05:56:43.943Z,62.50
2023-01-17T05:59:13.947Z,61.30
2023-01-17T06:01:41.137Z,61.20
2023-01-17T06:04:08.071Z,60.70
2023-01-17T06:06:35.220Z,60.30
2023-01-17T06:09:02.516Z,61.50
2023-01-17T06:11:29.436Z,61.80
2023-01-17T06:13:56.411Z,62.40
2023-01-17T06:16:23.423Z,62.20
2023-01-17T06:18:50.752Z,63.40
2023-01-17T06:21:17.771Z,64.10
2023-01-17T06:23:44.719Z,64.00
2023-01-17T06:26:11.715Z,63.20
2023-01-17T06:28:38.692Z,64.70
2023-01-17T06:31:07.878Z,64.30
2023-01-17T06:33:34.981Z,64.10
2023-01-17T06:36:02.165Z,63.40
2023-01-17T06:38:30.196Z,64.30
2023-01-17T06:41:00.300Z,63.90
2023-01-17T06:43:32.570Z,63.60
2023-01-17T06:46:00.793Z,64.20
2023-01-17T06:48:28.109Z,63.60
2023-01-17T06:50:56.994Z,63.10
2023-01-17T06:53:24.009Z,62.60
2023-01-17T06:55:51.048Z,62.70
2023-01-17T06:58:17.968Z,62.40
2023-01-17T07:00:44.927Z,62.20
2023-01-17T07:03:20.207Z,61.90
2023-01-17T07:05:48.286Z,61.00
2023-01-17T07:08:16.977Z,61.70
2023-01-17T07:10:48.019Z,62.60
2023-01-17T07:13:15.179Z,61.40
2023-01-17T07:15:42.392Z,62.30
2023-01-17T07:18:09.425Z,62.40
2023-01-17T07:20:36.433Z,61.80
2023-01-17T07:23:03.464Z,62.40
2023-01-17T07:25:30.426Z,61.80
2023-01-17T07:27:57.742Z,61.60
2023-01-17T07:30:25.298Z,61.70
2023-01-17T07:32:53.574Z,61.30
2023-01-17T07:35:21.127Z,61.10
2023-01-17T07:37:49.478Z,61.20
2023-01-17T07:40:17.586Z,61.00
2023-01-17T07:42:45.059Z,61.00
2023-01-17T15:34:59.437Z,52.30
2023-01-17T15:37:32.696Z,52.10
2023-01-17T15:40:02.711Z,52.30
2023-01-17T15:42:31.857Z,52.40
2023-01-17T15:45:01.997Z,52.20
2023-01-17T15:47:35.473Z,53.00
2023-01-17T15:50:26.319Z,52.80
2023-01-17T15:53:03.525Z,52.10
2023-01-17T15:55:40.036Z,52.60
2023-01-17T15:58:27.935Z,53.00
2023-01-17T16:00:55.652Z,53.30
2023-01-17T16:03:31.647Z,53.50
2023-01-17T16:06:01.237Z,53.20
2023-01-17T16:08:31.633Z,53.60
2023-01-17T16:11:02.326Z,52.90
2023-01-17T16:13:32.196Z,53.00
2023-01-17T16:16:13.796Z,53.90
2023-01-17T16:18:41.480Z,53.40
2023-01-17T16:21:28.607Z,53.40
2023-01-17T16:23:56.501Z,53.50
2023-01-17T16:26:24.232Z,54.00
2023-01-17T16:28:51.543Z,54.20
2023-01-17T16:31:19.353Z,53.80
2023-01-17T16:33:49.360Z,54.10
2023-01-17T16:36:17.348Z,53.90
2023-01-17T16:38:45.286Z,54.30
2023-01-17T16:41:12.687Z,54.20
2023-01-17T16:43:39.871Z,54.80
2023-01-17T16:46:07.175Z,54.80
2023-01-17T16:48:34.158Z,54.80
2023-01-17T16:51:06.325Z,54.40
2023-01-17T16:53:33.445Z,55.20
2023-01-17T16:56:09.522Z,56.50
2023-01-17T16:58:36.738Z,57.60
2023-01-17T17:01:15.433Z,57.70
2023-01-17T17:03:44.084Z,56.70
2023-01-17T17:06:11.759Z,56.50
2023-01-17T17:08:39.790Z,56.50
2023-01-17T17:11:25.219Z,56.30
2023-01-17T17:13:52.690Z,55.90
2023-01-17T17:16:23.186Z,56.10
2023-01-17T17:18:58.994Z,55.90
2023-01-17T17:21:28.052Z,55.70
2023-01-17T17:23:57.038Z,56.30
2023-01-17T17:26:26.848Z,56.30
2023-01-17T17:28:54.820Z,56.40
2023-01-17T17:31:21.948Z,56.50
2023-01-17T17:33:49.067Z,56.70
2023-01-17T17:36:17.539Z,56.80
2023-01-17T17:38:54.299Z,56.40
2023-01-17T17:41:24.249Z,56.40
2023-01-17T17:43:52.375Z,56.40
2023-01-17T17:46:21.110Z,56.70
2023-01-17T17:48:48.275Z,56.40
2023-01-17T17:51:26.865Z,56.60
2023-01-17T17:53:55.709Z,56.80
2023-01-17T17:56:23.770Z,56.70
2023-01-17T17:58:50.970Z,56.90
2023-01-17T18:01:21.568Z,56.90
2023-01-17T18:03:55.335Z,57.00
2023-01-17T18:06:22.824Z,57.30
2023-01-17T18:08:51.912Z,55.70
2023-01-17T18:11:22.599Z,55.60
2023-01-17T18:13:51.118Z,55.00
2023-01-17T18:16:27.117Z,57.80
2023-01-17T18:18:56.131Z,61.80
2023-01-17T18:21:25.230Z,60.70
2023-01-17T18:23:58.865Z,59.30
2023-01-17T18:26:29.016Z,58.70
2023-01-17T18:28:57.781Z,59.30
2023-01-17T18:31:27.173Z,58.60
2023-01-17T18:33:59.878Z,57.60
2023-01-17T18:36:28.853Z,57.70
2023-01-17T18:38:55.963Z,59.50
2023-01-17T18:41:28.368Z,59.60
2023-01-17T18:43:59.005Z,59.30
2023-01-17T18:46:26.813Z,59.50
2023-01-17T18:48:57.064Z,59.70
2023-01-17T18:51:25.050Z,59.20
2023-01-17T18:53:54.887Z,58.70
2023-01-17T18:56:23.179Z,61.20
2023-01-17T18:58:51.099Z,60.90
2023-01-17T19:01:25.301Z,60.90
2023-01-17T19:03:55.759Z,60.90
2023-01-17T19:06:31.910Z,61.90
2023-01-17T19:08:59.515Z,60.70
2023-01-17T19:11:28.069Z,60.00
2023-01-17T19:13:55.969Z,60.10
2023-01-17T19:16:29.529Z,59.90
2023-01-17T19:18:58.420Z,60.00
2023-01-17T19:21:27.546Z,60.40
2023-01-17T19:23:55.886Z,60.20
2023-01-17T19:26:24.952Z,60.10
2023-01-17T19:28:52.999Z,60.40
2023-01-17T19:31:22.850Z,60.70
2023-01-17T19:33:52.499Z,60.30
2023-01-17T19:36:23.668Z,61.50
2023-01-17T19:39:03.366Z,60.60
2023-01-17T19:41:32.172Z,60.20
2023-01-17T19:44:07.627Z,60.00
2023-01-17T19:46:35.975Z,60.00
2023-01-17T19:49:04.576Z,59.90
2023-01-17T19:51:31.606Z,59.30
2023-01-17T19:54:01.353Z,58.90
2023-01-17T19:56:28.839Z,58.30
2023-01-17T19:59:01.812Z,57.40
2023-01-17T20:01:32.348Z,58.40
2023-01-17T20:04:01.054Z,59.00
2023-01-17T20:06:30.933Z,59.00
2023-01-17T20:08:58.308Z,59.70
2023-01-17T20:11:27.173Z,59.00
2023-01-17T20:13:56.735Z,57.90
2023-01-17T20:16:25.501Z,57.40
2023-01-17T20:18:53.005Z,56.90
2023-01-17T20:21:22.798Z,56.10
2023-01-17T20:23:51.604Z,56.60
2023-01-17T20:26:21.906Z,57.20
2023-01-17T20:28:51.483Z,58.20
2023-01-17T20:31:24.183Z,57.70
2023-01-17T20:33:54.800Z,58.20
2023-01-17T20:36:24.799Z,58.00
2023-01-17T20:38:53.292Z,58.00
2023-01-17T20:41:23.349Z,58.30
2023-01-17T20:43:55.389Z,58.30
2023-01-17T20:46:24.894Z,58.30
2023-01-17T20:48:56.202Z,58.30
2023-01-17T20:51:26.190Z,58.20
2023-01-17T20:53:59.183Z,58.30
2023-01-17T20:56:27.108Z,58.30
2023-01-17T20:58:54.600Z,58.40
2023-01-17T21:01:23.350Z,58.20
2023-01-17T21:03:53.898Z,58.20
2023-01-17T21:06:23.186Z,58.40
2023-01-17T21:08:50.794Z,58.50
2023-01-17T21:11:23.314Z,58.80
2023-01-17T21:13:51.297Z,58.40
2023-01-17T21:16:20.454Z,58.80
2023-01-17T21:18:49.005Z,58.40
2023-01-17T21:21:24.348Z,58.50
2023-01-17T21:23:54.048Z,58.70
2023-01-17T21:26:22.366Z,58.80
2023-01-17T21:28:50.822Z,59.30
2023-01-17T21:31:24.970Z,59.30
2023-01-17T21:33:57.033Z,58.70
2023-01-17T21:36:26.752Z,58.90
2023-01-17T21:38:56.977Z,59.00
2023-01-17T21:41:28.976Z,58.90
2023-01-17T21:44:01.548Z,58.30
2023-01-17T21:46:29.314Z,58.60
2023-01-17T21:48:57.605Z,59.10
2023-01-17T21:51:45.327Z,58.80
2023-01-17T21:54:12.488Z,58.60
2023-01-17T21:56:57.995Z,58.10
2023-01-17T21:59:25.040Z,59.00
2023-01-17T22:01:52.031Z,58.90
2023-01-17T22:04:19.043Z,58.90
2023-01-17T22:06:46.594Z,58.70
2023-01-17T22:09:15.250Z,58.20
2023-01-17T22:11:42.266Z,58.50
2023-01-17T22:14:09.570Z,57.90
2023-01-17T22:16:36.471Z,58.00
2023-01-17T22:19:03.420Z,58.30
2023-01-17T22:21:30.507Z,58.30
2023-01-17T22:23:59.716Z,58.60
2023-01-17T22:26:30.304Z,58.40
2023-01-17T22:29:00.852Z,58.00
2023-01-17T22:31:28.287Z,58.00
2023-01-17T22:34:00.997Z,58.30
2023-01-17T22:36:29.285Z,58.50
2023-01-17T22:38:56.906Z,58.30
2023-01-17T22:41:27.920Z,58.70
2023-01-17T22:43:58.533Z,58.50
2023-01-17T22:46:28.562Z,58.20
2023-01-17T22:48:56.676Z,58.60
2023-01-17T22:51:26.092Z,58.10
2023-01-17T22:53:55.744Z,58.10
2023-01-17T22:56:28.942Z,58.20
2023-01-17T22:58:55.993Z,58.20
2023-01-17T23:01:26.320Z,58.00
2023-01-17T23:04:04.132Z,58.00
2023-01-17T23:06:38.761Z,58.40
2023-01-17T23:09:10.586Z,57.90
2023-01-17T23:11:43.303Z,57.90
2023-01-17T23:14:19.361Z,58.10
2023-01-17T23:17:20.945Z,57.80
2023-01-17T23:19:51.125Z,57.70
2023-01-17T23:22:26.942Z,57.60
2023-01-17T23:25:04.004Z,57.50
2023-01-17T23:28:04.005Z,57.30
2023-01-17T23:30:36.643Z,57.30
2023-01-17T23:33:07.399Z,57.60
2023-01-17T23:35:42.243Z,57.50
2023-01-17T23:38:29.618Z,57.50
2023-01-17T23:41:25.849Z,57.60
2023-01-17T23:43:54.433Z,57.50
2023-01-17T23:46:22.274Z,57.70
2023-01-17T23:48:49.295Z,57.40
2023-01-17T23:51:16.288Z,57.30
2023-01-17T23:53:43.285Z,57.50
2023-01-17T23:56:19.698Z,57.60
2023-01-17T23:58:47.001Z,57.60
